Time;durP1;ratioP1;P1;durP2;ratioP2;P2;SDS_P1;SDS_P2;PMS_P1;PMS_P2;Temp;Humidity;BMP_temperature;BMP_pressure;BME280_temperature;BME280_humidity;BME280_pressure;Samples;Min_cycle;Max_cycle;Signal;HPM_P1;HPM_P2
2022/11/30 00:00:22;;;;;;;9.05;2.70;;;;;;;;;;5006764;28;20439;-68
2022/11/30 00:02:48;;;;;;;8.00;3.08;;;;;;;;;;5004748;28;20125;-68
2022/11/30 00:05:14;;;;;;;10.70;3.15;;;;;;;;;;5006776;28;20036;-67
2022/11/30 00:07:41;;;;;;;11.02;4.18;;;;;;;;;;4987483;28;20165;-67
2022/11/30 00:10:08;;;;;;;12.65;4.60;;;;;;;;;;4988047;28;20110;-65
2022/11/30 00:12:34;;;;;;;10.60;4.63;;;;;;;;;;4984114;28;20037;-65
2022/11/30 00:15:00;;;;;;;9.40;3.38;;;;;;;;;;4999044;28;20038;-65
2022/11/30 00:17:26;;;;;;;10.07;3.60;;;;;;;;;;5008187;28;20159;-66
2022/11/30 00:19:52;;;;;;;10.68;3.90;;;;;;;;;;5003646;28;20448;-66
2022/11/30 00:22:19;;;;;;;9.02;3.60;;;;;;;;;;4987095;28;21203;-65
2022/11/30 00:24:45;;;;;;;8.43;3.25;;;;;;;;;;5002438;28;20055;-67
2022/11/30 00:27:11;;;;;;;8.07;2.97;;;;;;;;;;5008055;28;20637;-67
2022/11/30 00:29:37;;;;;;;;;;;;;;;;;;4988334;28;20033;-65
2022/11/30 00:32:03;;;;;;;8.40;3.08;;;;;;;;;;4976665;28;20003;-65
2022/11/30 00:34:30;;;;;;;9.60;3.60;;;;;;;;;;5008994;28;20043;-65
2022/11/30 00:36:56;;;;;;;8.73;3.10;;;;;;;;;;5006258;28;20073;-66
2022/11/30 00:39:22;;;;;;;8.50;2.55;;;;;;;;;;5005015;28;20032;-66
2022/11/30 00:41:48;;;;;;;9.88;3.10;;;;;;;;;;5002561;28;20025;-66
2022/11/30 00:44:14;;;;;;;8.88;2.88;;;;;;;;;;4988627;28;20359;-66
2022/11/30 00:46:40;;;;;;;8.55;2.45;;;;;;;;;;5005496;28;20029;-66
2022/11/30 00:49:06;;;;;;;8.75;3.20;;;;;;;;;;5002125;28;20124;-66
2022/11/30 00:51:32;;;;;;;7.40;2.80;;;;;;;;;;5008775;28;20033;-66
2022/11/30 00:53:58;;;;;;;8.52;2.63;;;;;;;;;;4983226;28;20372;-66
2022/11/30 00:56:25;;;;;;;9.50;2.90;;;;;;;;;;5003547;28;20293;-66
2022/11/30 00:58:51;;;;;;;7.72;2.35;;;;;;;;;;5003723;28;20789;-66
2022/11/30 01:01:17;;;;;;;7.32;2.35;;;;;;;;;;5007984;28;20700;-66
2022/11/30 01:03:43;;;;;;;7.88;2.50;;;;;;;;;;4999476;28;20895;-66
2022/11/30 01:06:09;;;;;;;8.00;2.33;;;;;;;;;;4984676;28;20036;-67
2022/11/30 01:08:35;;;;;;;;;;;;;;;;;;4987792;28;20120;-67
2022/11/30 01:11:11;;;;;;;7.40;1.95;;;;;;;;;;5004525;28;23801;-67
2022/11/30 01:13:37;;;;;;;4.70;1.50;;;;;;;;;;4984139;28;20137;-67
2022/11/30 01:16:08;;;;;;;5.65;1.50;;;;;;;;;;4979335;28;20543;-67
2022/11/30 01:18:36;;;;;;;5.60;1.50;;;;;;;;;;5005943;28;20172;-67
2022/11/30 01:21:05;;;;;;;5.28;1.50;;;;;;;;;;4987777;28;20881;-67
2022/11/30 01:23:31;;;;;;;4.35;1.40;;;;;;;;;;5010645;28;20762;-67
2022/11/30 01:25:57;;;;;;;6.07;1.80;;;;;;;;;;5005977;28;20396;-67
2022/11/30 01:28:23;;;;;;;5.85;1.75;;;;;;;;;;5000741;28;20362;-67
2022/11/30 01:31:04;;;;;;;4.70;1.60;;;;;;;;;;4975666;28;20033;-67
2022/11/30 01:33:30;;;;;;;5.63;1.52;;;;;;;;;;5000696;28;20028;-67
2022/11/30 01:36:06;;;;;;;6.10;1.58;;;;;;;;;;4978376;28;20651;-67
2022/11/30 01:38:37;;;;;;;6.90;1.50;;;;;;;;;;4983996;28;20060;-67
2022/11/30 01:41:04;;;;;;;5.05;1.48;;;;;;;;;;4982939;28;20343;-67
2022/11/30 01:43:37;;;;;;;3.35;1.10;;;;;;;;;;4996758;28;20475;-67
2022/11/30 01:46:03;;;;;;;5.07;1.30;;;;;;;;;;4994162;28;20584;-67
2022/11/30 01:48:29;;;;;;;7.07;1.45;;;;;;;;;;4981683;28;20175;-67
2022/11/30 01:50:56;;;;;;;4.72;1.35;;;;;;;;;;4979415;28;20198;-67
2022/11/30 01:53:23;;;;;;;5.30;1.20;;;;;;;;;;4977919;28;20040;-67
2022/11/30 01:55:49;;;;;;;5.97;1.27;;;;;;;;;;4994337;28;20091;-67
2022/11/30 01:58:17;;;;;;;6.75;1.55;;;;;;;;;;4984575;28;20025;-66
2022/11/30 02:00:45;;;;;;;6.60;1.50;;;;;;;;;;4998932;28;20017;-66
2022/11/30 02:03:20;;;;;;;5.38;1.45;;;;;;;;;;4997074;28;20022;-66
2022/11/30 02:05:46;;;;;;;7.55;1.60;;;;;;;;;;4995460;28;20403;-67
2022/11/30 02:08:12;;;;;;;7.50;1.42;;;;;;;;;;4979620;28;20033;-67
2022/11/30 02:10:40;;;;;;;6.15;1.40;;;;;;;;;;4998501;28;20154;-66
2022/11/30 02:13:12;;;;;;;5.70;1.30;;;;;;;;;;4976443;28;20059;-66
2022/11/30 02:15:59;;;;;;;6.00;1.58;;;;;;;;;;4980630;28;20064;-66
2022/11/30 02:18:30;;;;;;;5.75;1.90;;;;;;;;;;4968072;28;20330;-66
2022/11/30 02:21:05;;;;;;;6.28;1.60;;;;;;;;;;4979349;28;20106;-66
2022/11/30 02:23:31;;;;;;;7.90;1.90;;;;;;;;;;4998940;28;20087;-67
2022/11/30 02:26:15;;;;;;;8.00;1.70;;;;;;;;;;5001166;28;20065;-66
2022/11/30 02:28:50;;;;;;;7.05;1.45;;;;;;;;;;4997182;28;20029;-66
2022/11/30 02:31:19;;;;;;;7.00;1.75;;;;;;;;;;4999021;28;20038;-67
2022/11/30 02:33:47;;;;;;;8.45;1.75;;;;;;;;;;4993420;28;20504;-66
2022/11/30 02:36:13;;;;;;;9.05;1.90;;;;;;;;;;4997594;28;20108;-66
2022/11/30 02:38:40;;;;;;;8.18;2.15;;;;;;;;;;4994945;28;20257;-66
2022/11/30 02:41:06;;;;;;;7.05;1.77;;;;;;;;;;4980353;28;20030;-66
2022/11/30 02:43:32;;;;;;;7.50;1.92;;;;;;;;;;4998320;28;20116;-66
2022/11/30 02:46:06;;;;;;;14.18;5.38;;;;;;;;;;4975454;28;20057;-66
2022/11/30 02:48:51;;;;;;;12.85;3.90;;;;;;;;;;5000726;28;20065;-66
2022/11/30 02:51:20;;;;;;;9.95;2.58;;;;;;;;;;4996549;28;20038;-67
2022/11/30 02:53:47;;;;;;;9.43;2.10;;;;;;;;;;4980713;28;20040;-66
2022/11/30 02:56:13;;;;;;;11.38;2.28;;;;;;;;;;4997092;28;20664;-65
2022/11/30 02:58:40;;;;;;;11.40;2.47;;;;;;;;;;5000271;28;20644;-65
2022/11/30 03:01:06;;;;;;;10.52;2.05;;;;;;;;;;4977890;28;20216;-65
2022/11/30 03:03:32;;;;;;;10.93;2.10;;;;;;;;;;4999153;28;20073;-66
2022/11/30 03:05:58;;;;;;;8.77;1.90;;;;;;;;;;4997575;28;20148;-66
2022/11/30 03:08:24;;;;;;;9.82;1.88;;;;;;;;;;4996803;28;20125;-66
2022/11/30 03:10:50;;;;;;;7.22;2.03;;;;;;;;;;4974213;28;20152;-66
2022/11/30 03:13:16;;;;;;;12.45;2.13;;;;;;;;;;4998691;28;20518;-66
2022/11/30 03:15:42;;;;;;;7.40;2.00;;;;;;;;;;4996364;28;20033;-66
2022/11/30 03:18:09;;;;;;;11.38;1.90;;;;;;;;;;4983174;28;20040;-66
2022/11/30 03:20:39;;;;;;;10.20;2.00;;;;;;;;;;4998833;28;20033;-66
2022/11/30 03:23:05;;;;;;;8.50;2.20;;;;;;;;;;4997007;28;20155;-66
2022/11/30 03:25:31;;;;;;;8.43;1.88;;;;;;;;;;4999372;28;20937;-66
2022/11/30 03:27:59;;;;;;;10.10;1.83;;;;;;;;;;4977529;28;20741;-66
2022/11/30 03:30:26;;;;;;;8.20;1.70;;;;;;;;;;4998837;28;20067;-66
2022/11/30 03:32:52;;;;;;;9.30;1.73;;;;;;;;;;4993359;28;20065;-66
2022/11/30 03:35:18;;;;;;;9.52;2.00;;;;;;;;;;4998116;28;20040;-66
2022/11/30 03:37:44;;;;;;;10.88;2.40;;;;;;;;;;4974449;28;20139;-66
2022/11/30 03:40:11;;;;;;;10.55;2.25;;;;;;;;;;4997997;28;20036;-66
2022/11/30 03:42:37;;;;;;;9.27;2.20;;;;;;;;;;4999358;28;20501;-66
2022/11/30 03:45:03;;;;;;;12.73;2.30;;;;;;;;;;4976204;28;20218;-66
2022/11/30 03:47:29;;;;;;;;;;;;;;;;;;4978641;28;20490;-66
2022/11/30 03:49:55;;;;;;;12.25;2.40;;;;;;;;;;4993382;28;19917;-66
2022/11/30 03:52:21;;;;;;;9.40;1.95;;;;;;;;;;4997262;28;20534;-66
2022/11/30 03:54:48;;;;;;;12.98;1.90;;;;;;;;;;4992294;28;20032;-66
2022/11/30 03:57:14;;;;;;;8.75;1.92;;;;;;;;;;4979999;28;20029;-66
2022/11/30 03:59:40;;;;;;;12.40;1.60;;;;;;;;;;4997884;28;20033;-66
2022/11/30 04:02:06;;;;;;;12.23;2.10;;;;;;;;;;4978210;28;20040;-67
2022/11/30 04:04:32;;;;;;;9.18;1.40;;;;;;;;;;4980321;28;20026;-66
2022/11/30 04:06:58;;;;;;;10.00;1.85;;;;;;;;;;4996324;28;20190;-66
2022/11/30 04:09:24;;;;;;;10.23;1.70;;;;;;;;;;4995876;28;20480;-66
2022/11/30 04:11:50;;;;;;;10.15;2.15;;;;;;;;;;4974937;28;20072;-66
2022/11/30 04:14:17;;;;;;;8.90;1.80;;;;;;;;;;4997052;28;20474;-65
2022/11/30 04:16:43;;;;;;;8.57;1.75;;;;;;;;;;4977598;28;20041;-65
2022/11/30 04:19:09;;;;;;;8.88;1.63;;;;;;;;;;4979187;28;20041;-65
2022/11/30 04:21:35;;;;;;;8.40;1.98;;;;;;;;;;4980127;28;20506;-66
2022/11/30 04:24:01;;;;;;;12.50;2.17;;;;;;;;;;4991632;28;20036;-66
2022/11/30 04:26:27;;;;;;;8.73;1.90;;;;;;;;;;4994672;28;20051;-66
2022/11/30 04:28:53;;;;;;;8.80;1.42;;;;;;;;;;4976455;28;20076;-66
2022/11/30 04:31:19;;;;;;;10.00;1.88;;;;;;;;;;4998160;28;20037;-66
2022/11/30 04:33:45;;;;;;;10.77;1.95;;;;;;;;;;4992939;28;20341;-66
2022/11/30 04:36:19;;;;;;;8.75;1.75;;;;;;;;;;4997571;28;20112;-66
2022/11/30 04:38:46;;;;;;;6.68;1.70;;;;;;;;;;4986493;28;20117;-66
2022/11/30 04:41:12;;;;;;;7.20;1.20;;;;;;;;;;4978233;28;20025;-66
2022/11/30 04:43:38;;;;;;;8.00;1.60;;;;;;;;;;4980775;28;20033;-65
2022/11/30 04:46:05;;;;;;;9.32;1.65;;;;;;;;;;4991762;28;20464;-68
2022/11/30 04:48:31;;;;;;;9.55;1.90;;;;;;;;;;4995684;28;20030;-65
2022/11/30 04:51:01;;;;;;;9.02;1.90;;;;;;;;;;4994859;28;20487;-65
2022/11/30 04:53:27;;;;;;;10.70;1.90;;;;;;;;;;4999290;28;20025;-65
2022/11/30 04:55:53;;;;;;;13.10;2.20;;;;;;;;;;4995346;28;20037;-65
2022/11/30 04:58:19;;;;;;;12.80;2.30;;;;;;;;;;5001731;28;20029;-68
2022/11/30 05:00:45;;;;;;;15.80;2.60;;;;;;;;;;4998950;28;20030;-65
2022/11/30 05:03:12;;;;;;;13.55;2.47;;;;;;;;;;4999809;28;20025;-66
2022/11/30 05:05:38;;;;;;;13.52;2.60;;;;;;;;;;4998402;28;20429;-65
2022/11/30 05:08:04;;;;;;;11.38;2.15;;;;;;;;;;4998851;28;20051;-65
2022/11/30 05:10:32;;;;;;;10.95;2.42;;;;;;;;;;4999243;28;21465;-68
2022/11/30 05:12:58;;;;;;;10.68;2.17;;;;;;;;;;4997060;28;20029;-68
2022/11/30 05:15:25;;;;;;;11.13;2.40;;;;;;;;;;5001587;28;20391;-65
2022/11/30 05:17:51;;;;;;;;;;;;;;;;;;4992936;28;20444;-67
2022/11/30 05:20:17;;;;;;;11.85;2.17;;;;;;;;;;4983210;28;19916;-67
2022/11/30 05:22:43;;;;;;;14.68;3.08;;;;;;;;;;4997286;28;20535;-67
2022/11/30 05:25:09;;;;;;;9.23;2.10;;;;;;;;;;5002255;28;20100;-67
2022/11/30 05:27:36;;;;;;;13.68;3.10;;;;;;;;;;4981984;28;20087;-68
2022/11/30 05:30:03;;;;;;;12.77;2.92;;;;;;;;;;4993828;28;21088;-68
2022/11/30 05:32:29;;;;;;;17.13;6.20;;;;;;;;;;4980346;28;20555;-67
2022/11/30 05:34:55;;;;;;;16.23;3.30;;;;;;;;;;4994915;28;20091;-68
2022/11/30 05:37:21;;;;;;;12.98;2.83;;;;;;;;;;4999510;28;21437;-67
2022/11/30 05:39:47;;;;;;;12.50;3.03;;;;;;;;;;4995401;28;20064;-67
2022/11/30 05:42:13;;;;;;;14.13;2.42;;;;;;;;;;4998352;28;20266;-67
2022/11/30 05:44:39;;;;;;;14.70;2.85;;;;;;;;;;4983088;28;20030;-67
2022/11/30 05:47:05;;;;;;;12.57;2.47;;;;;;;;;;4995936;28;20432;-67
2022/11/30 05:49:31;;;;;;;10.85;2.17;;;;;;;;;;5002260;28;20033;-67
2022/11/30 05:51:58;;;;;;;10.75;2.33;;;;;;;;;;4980766;28;20148;-67
2022/11/30 05:54:24;;;;;;;14.80;3.00;;;;;;;;;;4998003;28;20052;-67
2022/11/30 05:56:51;;;;;;;12.02;2.60;;;;;;;;;;4979621;28;20049;-67
2022/11/30 05:59:17;;;;;;;13.93;2.50;;;;;;;;;;4998458;28;20124;-67
2022/11/30 06:01:43;;;;;;;14.20;2.65;;;;;;;;;;4992486;28;20099;-67
2022/11/30 06:04:09;;;;;;;15.95;2.72;;;;;;;;;;5000323;28;20045;-67
2022/11/30 06:06:35;;;;;;;12.27;2.42;;;;;;;;;;5000033;28;20559;-67
2022/11/30 06:09:01;;;;;;;14.68;2.95;;;;;;;;;;4999720;28;20519;-67
2022/11/30 06:11:27;;;;;;;14.73;2.47;;;;;;;;;;4984646;28;20025;-67
2022/11/30 06:13:53;;;;;;;9.20;1.83;;;;;;;;;;4996201;28;20350;-67
2022/11/30 06:16:19;;;;;;;12.25;2.50;;;;;;;;;;5002757;28;20566;-67
2022/11/30 06:18:46;;;;;;;12.38;2.38;;;;;;;;;;4993138;28;20025;-67
2022/11/30 06:21:12;;;;;;;14.38;2.88;;;;;;;;;;4999166;28;20539;-67
2022/11/30 06:23:38;;;;;;;13.73;2.92;;;;;;;;;;4984619;28;20087;-67
2022/11/30 06:26:09;;;;;;;17.88;3.13;;;;;;;;;;4976512;28;20136;-67
2022/11/30 06:28:35;;;;;;;14.80;2.90;;;;;;;;;;4998819;28;20446;-67
2022/11/30 06:31:02;;;;;;;9.93;1.92;;;;;;;;;;4977600;28;20657;-67
2022/11/30 06:33:28;;;;;;;12.25;2.72;;;;;;;;;;5001351;28;20628;-66
2022/11/30 06:35:54;;;;;;;;;;;;;;;;;;4995921;28;20310;-68
2022/11/30 06:38:21;;;;;;;20.00;3.10;;;;;;;;;;5000381;28;20551;-67
2022/11/30 06:40:47;;;;;;;;;;;;;;;;;;4998342;28;20479;-67
2022/11/30 06:43:13;;;;;;;17.42;2.70;;;;;;;;;;4998220;28;19920;-67
2022/11/30 06:45:39;;;;;;;21.83;3.55;;;;;;;;;;4998586;28;20073;-67
2022/11/30 06:48:05;;;;;;;19.08;3.35;;;;;;;;;;4994689;28;20382;-67
2022/11/30 06:50:32;;;;;;;15.93;3.35;;;;;;;;;;4979953;28;20057;-67
2022/11/30 06:52:58;;;;;;;13.45;2.80;;;;;;;;;;4979605;28;20029;-67
2022/11/30 06:55:24;;;;;;;14.68;2.83;;;;;;;;;;4994957;28;20651;-67
2022/11/30 06:57:50;;;;;;;12.68;3.05;;;;;;;;;;4997035;28;20748;-67
2022/11/30 07:00:17;;;;;;;17.08;3.53;;;;;;;;;;4996097;28;20103;-67
2022/11/30 07:02:44;;;;;;;14.48;3.17;;;;;;;;;;4993041;28;20025;-67
2022/11/30 07:05:10;;;;;;;15.57;2.95;;;;;;;;;;4982878;28;20034;-67
2022/11/30 07:07:36;;;;;;;;;;;;;;;;;;4980642;28;20555;-67
2022/11/30 07:10:02;;;;;;;17.25;3.55;;;;;;;;;;4991681;28;21598;-67
2022/11/30 07:12:28;;;;;;;12.10;2.90;;;;;;;;;;4978331;28;20123;-66
2022/11/30 07:14:54;;;;;;;16.63;2.90;;;;;;;;;;4993731;28;20323;-66
2022/11/30 07:17:21;;;;;;;18.55;3.13;;;;;;;;;;4981018;28;20029;-66
2022/11/30 07:19:47;;;;;;;;;;;;;;;;;;4993643;28;20068;-67
2022/11/30 07:22:13;;;;;;;64.72;8.50;;;;;;;;;;5009782;28;20126;-66
2022/11/30 07:27:24;;;;;;;89.38;10.80;;;;;;;;;;5004223;28;20475;-66
2022/11/30 07:29:51;;;;;;;108.60;12.30;;;;;;;;;;5000360;28;20147;-66
2022/11/30 07:32:17;;;;;;;73.32;8.88;;;;;;;;;;5006290;28;20037;-65
2022/11/30 07:34:43;;;;;;;;;;;;;;;;;;5000257;28;20435;-66
2022/11/30 07:37:10;;;;;;;47.08;6.75;;;;;;;;;;5007606;28;19928;-66
2022/11/30 07:39:36;;;;;;;;;;;;;;;;;;5005651;28;20460;-66
2022/11/30 07:42:03;;;;;;;32.88;4.65;;;;;;;;;;5001452;28;21684;-66
2022/11/30 07:44:29;;;;;;;28.23;4.32;;;;;;;;;;5008490;28;20025;-66
2022/11/30 07:46:55;;;;;;;24.20;3.78;;;;;;;;;;5008558;28;20143;-66
2022/11/30 07:49:21;;;;;;;22.40;4.38;;;;;;;;;;5010652;28;20037;-66
2022/11/30 07:51:47;;;;;;;27.75;4.53;;;;;;;;;;5000709;28;20446;-66
2022/11/30 07:54:13;;;;;;;21.45;4.15;;;;;;;;;;4989518;28;20032;-66
2022/11/30 07:56:40;;;;;;;21.25;4.38;;;;;;;;;;5008323;28;20032;-66
2022/11/30 07:59:06;;;;;;;18.85;4.38;;;;;;;;;;4985808;28;20119;-66
2022/11/30 08:01:32;;;;;;;20.65;4.80;;;;;;;;;;5005270;28;20037;-66
2022/11/30 08:03:58;;;;;;;;;;;;;;;;;;4980631;28;20594;-66
2022/11/30 08:06:25;;;;;;;18.50;4.43;;;;;;;;;;5006406;28;20210;-66
2022/11/30 08:08:53;;;;;;;18.70;4.82;;;;;;;;;;5005369;28;20033;-66
2022/11/30 08:11:23;;;;;;;17.30;4.70;;;;;;;;;;5007942;28;20037;-66
2022/11/30 08:13:50;;;;;;;16.73;4.28;;;;;;;;;;5001400;28;20029;-66
2022/11/30 08:16:17;;;;;;;14.70;3.83;;;;;;;;;;5008435;28;20032;-66
2022/11/30 08:18:43;;;;;;;17.67;4.75;;;;;;;;;;5004198;28;20369;-68
2022/11/30 08:21:10;;;;;;;;;;;;;;;;;;4983204;28;20022;-68
2022/11/30 08:23:37;;;;;;;19.20;4.40;;;;;;;;;;4952344;28;19909;-68
2022/11/30 08:26:05;;;;;;;20.48;4.50;;;;;;;;;;4997125;28;20091;-68
2022/11/30 08:28:31;;;;;;;12.10;3.78;;;;;;;;;;5001555;28;20048;-66
2022/11/30 08:31:02;;;;;;;15.60;3.85;;;;;;;;;;5008673;28;20087;-66
2022/11/30 08:33:29;;;;;;;14.63;3.40;;;;;;;;;;4996060;28;20033;-67
2022/11/30 08:36:04;;;;;;;28.42;4.18;;;;;;;;;;4995971;28;20282;-68
2022/11/30 08:38:32;;;;;;;15.65;4.20;;;;;;;;;;4987774;28;20096;-68
2022/11/30 08:40:58;;;;;;;14.55;3.78;;;;;;;;;;4994092;28;20033;-66
2022/11/30 08:43:24;;;;;;;12.52;3.90;;;;;;;;;;4989200;28;20064;-66
2022/11/30 08:45:50;;;;;;;19.85;4.43;;;;;;;;;;4994282;28;20041;-66
2022/11/30 08:48:16;;;;;;;18.83;5.90;;;;;;;;;;4999014;28;20101;-66
2022/11/30 08:50:43;;;;;;;21.90;8.88;;;;;;;;;;4997604;28;20042;-66
2022/11/30 08:53:09;;;;;;;25.70;7.80;;;;;;;;;;5003983;28;20065;-66
2022/11/30 08:55:35;;;;;;;25.10;8.27;;;;;;;;;;4988074;28;20041;-66
2022/11/30 08:58:02;;;;;;;18.02;6.90;;;;;;;;;;4974784;28;20040;-66
2022/11/30 09:00:28;;;;;;;24.20;5.47;;;;;;;;;;4957954;28;20033;-66
2022/11/30 09:02:54;;;;;;;13.63;4.65;;;;;;;;;;4953522;28;20371;-68
2022/11/30 09:05:20;;;;;;;;;;;;;;;;;;4971715;28;20038;-68
2022/11/30 09:07:47;;;;;;;13.50;2.90;;;;;;;;;;4958702;28;20383;-65
2022/11/30 09:10:13;;;;;;;;;;;;;;;;;;4975463;28;20124;-68
2022/11/30 09:12:40;;;;;;;9.52;2.40;;;;;;;;;;5001778;28;19935;-67
2022/11/30 09:15:07;;;;;;;9.25;2.25;;;;;;;;;;4998342;28;20044;-67
2022/11/30 09:17:33;;;;;;;12.00;2.80;;;;;;;;;;5014463;28;20029;-67
2022/11/30 09:19:59;;;;;;;;;;;;;;;;;;4983895;28;20172;-67
2022/11/30 09:22:26;;;;;;;7.95;1.80;;;;;;;;;;5613083;22;19931;-66
2022/11/30 09:24:52;;;;;;;10.10;2.20;;;;;;;;;;5018916;28;20037;-66
2022/11/30 09:27:19;;;;;;;9.52;2.45;;;;;;;;;;5002796;28;20109;-65
2022/11/30 09:29:45;;;;;;;9.52;2.20;;;;;;;;;;5010838;28;20056;-66
2022/11/30 09:32:11;;;;;;;;;;;;;;;;;;5015977;28;20442;-65
2022/11/30 09:34:40;;;;;;;9.70;1.98;;;;;;;;;;5022622;28;19920;-66
2022/11/30 09:37:06;;;;;;;8.02;1.85;;;;;;;;;;5018801;28;20566;-66
2022/11/30 09:39:32;;;;;;;;;;;;;;;;;;5006483;28;20029;-64
2022/11/30 09:42:11;;;;;;;10.90;2.30;;;;;;;;;;5021148;28;20225;-66
2022/11/30 09:44:37;;;;;;;10.88;2.20;;;;;;;;;;4984536;28;20036;-65
2022/11/30 09:47:03;;;;;;;;;;;;;;;;;;4977721;28;20587;-63
2022/11/30 09:49:37;;;;;;;10.35;1.95;;;;;;;;;;4965774;28;20061;-64
2022/11/30 09:52:05;;;;;;;22.05;2.80;;;;;;;;;;4974139;28;20041;-64
2022/11/30 09:54:37;;;;;;;13.18;2.33;;;;;;;;;;4980192;28;20717;-64
2022/11/30 09:57:24;;;;;;;12.48;2.20;;;;;;;;;;4978544;28;20037;-66
2022/11/30 10:00:14;;;;;;;13.50;2.33;;;;;;;;;;4981093;28;20025;-66
2022/11/30 10:02:41;;;;;;;15.57;2.90;;;;;;;;;;4956983;28;20554;-67
2022/11/30 10:05:16;;;;;;;10.70;2.47;;;;;;;;;;4981835;28;20492;-67
2022/11/30 10:07:53;;;;;;;18.20;2.60;;;;;;;;;;4983121;28;20468;-66
2022/11/30 10:10:22;;;;;;;15.00;2.53;;;;;;;;;;4962468;28;20427;-66
2022/11/30 10:13:04;;;;;;;19.20;2.30;;;;;;;;;;4961596;28;20048;-66
2022/11/30 10:15:33;;;;;;;20.73;2.28;;;;;;;;;;4982365;28;20356;-66
2022/11/30 10:18:22;;;;;;;24.15;2.22;;;;;;;;;;4981908;28;20036;-66
2022/11/30 10:20:58;;;;;;;12.85;2.28;;;;;;;;;;4930408;28;20567;-66
2022/11/30 10:23:24;;;;;;;11.27;2.53;;;;;;;;;;4952293;28;20799;-66
2022/11/30 10:26:20;;;;;;;11.45;2.10;;;;;;;;;;4944171;28;20049;-66
2022/11/30 10:28:49;;;;;;;19.02;2.58;;;;;;;;;;4943585;28;20043;-65
2022/11/30 10:31:16;;;;;;;17.50;2.45;;;;;;;;;;4947490;28;20043;-66
2022/11/30 10:33:46;;;;;;;9.60;1.75;;;;;;;;;;4947310;28;20122;-65
2022/11/30 10:36:15;;;;;;;11.27;1.98;;;;;;;;;;4951860;28;20194;-65
2022/11/30 10:38:44;;;;;;;10.93;1.98;;;;;;;;;;4948027;28;20358;-65
2022/11/30 10:41:13;;;;;;;9.82;2.20;;;;;;;;;;4949692;28;20057;-66
2022/11/30 10:43:45;;;;;;;10.90;2.65;;;;;;;;;;4951735;28;20409;-66
2022/11/30 10:46:18;;;;;;;8.50;1.90;;;;;;;;;;4947505;28;20469;-66
2022/11/30 10:48:48;;;;;;;10.98;1.98;;;;;;;;;;4942227;28;20115;-67
2022/11/30 10:51:14;;;;;;;11.02;2.50;;;;;;;;;;4946335;28;20085;-66
2022/11/30 10:53:40;;;;;;;11.52;2.63;;;;;;;;;;4946877;28;20035;-66
2022/11/30 10:56:11;;;;;;;15.00;2.72;;;;;;;;;;4944356;28;20050;-66
2022/11/30 10:58:37;;;;;;;9.57;2.20;;;;;;;;;;5020683;28;20495;-66
2022/11/30 11:01:05;;;;;;;10.45;2.40;;;;;;;;;;5022243;28;20017;-66
2022/11/30 11:03:32;;;;;;;12.32;2.47;;;;;;;;;;5023479;28;20534;-66
2022/11/30 11:06:12;;;;;;;9.55;2.55;;;;;;;;;;5016389;28;20037;-64
2022/11/30 11:08:38;;;;;;;19.48;2.63;;;;;;;;;;5023806;28;20451;-65
2022/11/30 11:11:24;;;;;;;10.27;2.55;;;;;;;;;;5016884;28;20880;-65
2022/11/30 11:13:50;;;;;;;13.43;2.28;;;;;;;;;;5024135;28;20191;-65
2022/11/30 11:16:17;;;;;;;12.80;2.35;;;;;;;;;;5027360;28;20491;-65
2022/11/30 11:18:53;;;;;;;12.65;2.13;;;;;;;;;;5022984;28;20061;-65
2022/11/30 11:21:20;;;;;;;10.65;2.00;;;;;;;;;;5020745;28;20025;-65
2022/11/30 11:23:48;;;;;;;10.60;2.33;;;;;;;;;;5019151;28;20048;-65
2022/11/30 11:26:35;;;;;;;10.30;2.22;;;;;;;;;;5028230;28;20112;-65
2022/11/30 11:29:01;;;;;;;25.20;3.70;;;;;;;;;;5012336;28;20569;-65
2022/11/30 11:31:33;;;;;;;11.00;2.42;;;;;;;;;;5015787;28;20035;-65
2022/11/30 11:33:59;;;;;;;11.52;1.92;;;;;;;;;;5021063;28;20323;-65
2022/11/30 11:36:28;;;;;;;8.38;1.77;;;;;;;;;;5027554;28;20445;-65
2022/11/30 11:38:54;;;;;;;9.35;2.35;;;;;;;;;;5019415;28;20036;-65
2022/11/30 11:41:23;;;;;;;8.90;2.55;;;;;;;;;;5020056;28;20501;-65
2022/11/30 11:44:01;;;;;;;29.55;2.80;;;;;;;;;;5017071;28;20490;-67
2022/11/30 11:46:28;;;;;;;13.02;2.45;;;;;;;;;;5026199;28;20128;-65
2022/11/30 11:49:00;;;;;;;11.50;2.15;;;;;;;;;;5019879;28;20036;-65
2022/11/30 11:51:30;;;;;;;15.25;2.38;;;;;;;;;;5033542;28;20036;-65
2022/11/30 11:53:57;;;;;;;13.20;2.33;;;;;;;;;;5019628;28;20029;-65
2022/11/30 11:56:25;;;;;;;11.80;2.05;;;;;;;;;;5023575;28;20041;-65
2022/11/30 11:59:03;;;;;;;11.93;2.30;;;;;;;;;;5021267;28;20325;-65
2022/11/30 12:01:38;;;;;;;10.20;1.75;;;;;;;;;;5020599;28;20024;-65
2022/11/30 12:04:23;;;;;;;8.67;1.93;;;;;;;;;;5023021;28;20114;-65
2022/11/30 12:06:51;;;;;;;8.48;2.10;;;;;;;;;;5020439;28;20036;-65
2022/11/30 12:09:24;;;;;;;7.03;1.63;;;;;;;;;;5020555;28;20497;-66
2022/11/30 12:11:50;;;;;;;7.65;1.80;;;;;;;;;;5022699;28;20033;-65
2022/11/30 12:14:18;;;;;;;9.68;1.73;;;;;;;;;;5022805;28;20036;-65
2022/11/30 12:17:00;;;;;;;9.35;2.22;;;;;;;;;;5017830;28;20558;-65
2022/11/30 12:19:29;;;;;;;10.15;1.90;;;;;;;;;;5020527;28;20029;-66
2022/11/30 12:22:14;;;;;;;9.75;1.85;;;;;;;;;;5020568;28;20032;-66
2022/11/30 12:24:45;;;;;;;9.20;2.00;;;;;;;;;;5023972;28;20931;-67
2022/11/30 12:27:12;;;;;;;9.02;1.88;;;;;;;;;;5022873;28;20106;-67
2022/11/30 12:29:56;;;;;;;8.82;2.25;;;;;;;;;;5020916;28;20454;-66
2022/11/30 12:32:35;;;;;;;8.63;2.70;;;;;;;;;;5017656;28;20201;-66
2022/11/30 12:35:10;;;;;;;9.45;2.45;;;;;;;;;;5011731;28;20033;-67
2022/11/30 12:37:55;;;;;;;10.37;2.43;;;;;;;;;;5010366;28;20499;-66
2022/11/30 12:40:27;;;;;;;10.10;2.25;;;;;;;;;;5029306;28;20306;-66
2022/11/30 12:43:03;;;;;;;10.30;2.28;;;;;;;;;;5014659;28;20391;-65
2022/11/30 12:45:29;;;;;;;10.63;2.50;;;;;;;;;;5016857;28;20403;-66
2022/11/30 12:47:58;;;;;;;20.88;11.77;;;;;;;;;;5012540;28;20346;-66
2022/11/30 12:50:31;;;;;;;25.23;12.77;;;;;;;;;;5012516;28;20025;-66
2022/11/30 12:53:04;;;;;;;25.38;9.57;;;;;;;;;;5013312;28;20040;-65
2022/11/30 12:55:45;;;;;;;13.75;6.13;;;;;;;;;;5016279;28;20890;-65
2022/11/30 12:58:18;;;;;;;11.23;2.97;;;;;;;;;;5015210;28;20183;-65
2022/11/30 13:00:57;;;;;;;10.65;3.20;;;;;;;;;;5013404;28;20044;-65
2022/11/30 13:03:26;;;;;;;10.05;3.05;;;;;;;;;;5012247;28;20389;-65
2022/11/30 13:05:56;;;;;;;12.65;3.33;;;;;;;;;;5008846;28;20497;-64
2022/11/30 13:08:29;;;;;;;11.27;3.92;;;;;;;;;;5013867;28;21259;-65
2022/11/30 13:10:56;;;;;;;9.73;3.00;;;;;;;;;;5014834;28;20036;-64
2022/11/30 13:13:28;;;;;;;10.50;2.60;;;;;;;;;;5021368;28;20033;-65
2022/11/30 13:15:55;;;;;;;10.38;2.85;;;;;;;;;;5018189;28;20453;-64
2022/11/30 13:18:22;;;;;;;10.32;2.78;;;;;;;;;;5017922;28;20497;-65
2022/11/30 13:21:00;;;;;;;14.00;1.83;;;;;;;;;;5014919;28;20029;-65
2022/11/30 13:23:42;;;;;;;9.93;2.55;;;;;;;;;;5021388;28;20693;-66
2022/11/30 13:26:11;;;;;;;25.55;3.78;;;;;;;;;;5020925;28;20036;-65
2022/11/30 13:28:41;;;;;;;12.77;2.33;;;;;;;;;;5016334;28;20041;-66
2022/11/30 13:31:10;;;;;;;16.60;2.72;;;;;;;;;;5016488;28;20551;-64
2022/11/30 13:33:56;;;;;;;16.33;3.13;;;;;;;;;;5015766;28;20048;-64
2022/11/30 13:36:39;;;;;;;8.57;2.20;;;;;;;;;;5019308;28;20045;-68
2022/11/30 13:39:09;;;;;;;12.45;2.58;;;;;;;;;;5017109;28;20041;-64
2022/11/30 13:41:36;;;;;;;7.65;2.05;;;;;;;;;;5016975;28;20298;-64
2022/11/30 13:44:03;;;;;;;10.20;2.38;;;;;;;;;;5016709;28;21832;-66
2022/11/30 13:46:30;;;;;;;10.02;2.55;;;;;;;;;;5018922;28;20029;-65
2022/11/30 13:49:15;;;;;;;10.25;2.70;;;;;;;;;;5013794;28;20108;-66
2022/11/30 13:51:41;;;;;;;11.55;2.20;;;;;;;;;;5016646;28;20029;-64
2022/11/30 13:54:26;;;;;;;9.32;2.00;;;;;;;;;;5014051;28;20443;-64
2022/11/30 13:56:52;;;;;;;13.90;2.88;;;;;;;;;;5018638;28;20036;-65
2022/11/30 13:59:26;;;;;;;19.65;3.67;;;;;;;;;;5018852;28;20029;-64
2022/11/30 14:02:12;;;;;;;16.77;6.15;;;;;;;;;;5017422;28;20060;-65
2022/11/30 14:04:45;;;;;;;18.88;6.10;;;;;;;;;;5018557;28;20025;-66
2022/11/30 14:07:30;;;;;;;13.32;3.95;;;;;;;;;;5017414;28;20033;-65
2022/11/30 14:09:57;;;;;;;23.90;3.90;;;;;;;;;;5014567;28;20041;-65
2022/11/30 14:12:31;;;;;;;23.17;4.13;;;;;;;;;;5018904;28;20302;-65
2022/11/30 14:14:57;;;;;;;12.90;2.70;;;;;;;;;;5018715;28;20340;-65
2022/11/30 14:17:26;;;;;;;14.65;3.20;;;;;;;;;;5021131;28;20036;-65
2022/11/30 14:19:55;;;;;;;14.38;2.80;;;;;;;;;;5014776;28;20117;-65
2022/11/30 14:22:21;;;;;;;12.38;2.83;;;;;;;;;;5019007;28;20021;-65
2022/11/30 14:24:48;;;;;;;14.68;3.10;;;;;;;;;;5014532;28;20465;-65
2022/11/30 14:27:17;;;;;;;12.38;3.28;;;;;;;;;;5016283;28;20029;-65
2022/11/30 14:29:44;;;;;;;15.02;2.88;;;;;;;;;;5015966;28;20086;-65
2022/11/30 14:32:12;;;;;;;13.60;2.75;;;;;;;;;;5015588;28;20268;-67
2022/11/30 14:34:49;;;;;;;18.58;2.67;;;;;;;;;;5013852;28;20039;-65
2022/11/30 14:37:21;;;;;;;18.08;3.10;;;;;;;;;;5010157;28;20033;-65
2022/11/30 14:39:48;;;;;;;19.48;3.53;;;;;;;;;;5013059;28;20035;-65
2022/11/30 14:42:21;;;;;;;11.18;2.63;;;;;;;;;;5010310;28;20032;-65
2022/11/30 14:44:48;;;;;;;21.58;3.55;;;;;;;;;;5014503;28;20344;-65
2022/11/30 14:47:14;;;;;;;12.52;3.45;;;;;;;;;;5014352;28;20068;-65
2022/11/30 14:49:40;;;;;;;;;;;;;;;;;;5017556;28;20045;-64
2022/11/30 14:52:07;;;;;;;19.73;6.93;;;;;;;;;;5010979;28;19912;-67